createdAt,value
2022-08-19T00:01:52.917Z,100.00
2022-08-19T00:04:24.290Z,100.00
2022-08-19T00:06:53.501Z,100.00
2022-08-19T00:09:23.981Z,100.00
2022-08-19T00:11:53.062Z,100.00
2022-08-19T00:14:22.936Z,100.00
2022-08-19T00:16:55.350Z,100.00
2022-08-19T00:19:24.724Z,100.00
2022-08-19T00:21:53.153Z,100.00
2022-08-19T00:24:21.398Z,100.00
2022-08-19T00:26:49.623Z,100.00
2022-08-19T00:29:20.511Z,100.00
2022-08-19T00:31:50.645Z,100.00
2022-08-19T00:34:20.462Z,100.00
2022-08-19T00:36:49.433Z,100.00
2022-08-19T00:39:19.183Z,100.00
2022-08-19T00:41:49.853Z,100.00
2022-08-19T00:44:21.406Z,100.00
2022-08-19T00:46:58.181Z,100.00
2022-08-19T00:49:33.753Z,100.00
2022-08-19T00:52:06.597Z,100.00
2022-08-19T00:54:35.417Z,100.00
2022-08-19T00:57:07.364Z,100.00
2022-08-19T00:59:58.799Z,100.00
2022-08-19T01:02:28.236Z,100.00
2022-08-19T01:04:58.274Z,100.00
2022-08-19T01:07:26.865Z,100.00
2022-08-19T01:09:55.764Z,100.00
2022-08-19T01:12:24.513Z,100.00
2022-08-19T01:14:53.572Z,100.00
2022-08-19T01:17:22.583Z,100.00
2022-08-19T01:19:50.723Z,100.00
2022-08-19T01:22:33.435Z,100.00
2022-08-19T01:25:02.557Z,100.00
2022-08-19T01:27:43.211Z,100.00
2022-08-19T01:30:17.063Z,100.00
2022-08-19T01:32:45.333Z,100.00
2022-08-19T01:35:15.136Z,100.00
2022-08-19T01:37:47.693Z,100.00
2022-08-19T01:40:17.270Z,100.00
2022-08-19T01:42:45.513Z,100.00
2022-08-19T01:45:13.713Z,100.00
2022-08-19T01:47:42.332Z,100.00
2022-08-19T01:50:12.390Z,100.00
2022-08-19T01:52:41.392Z,100.00
2022-08-19T01:55:14.143Z,100.00
2022-08-19T01:57:44.943Z,100.00
2022-08-19T02:00:17.093Z,100.00
2022-08-19T02:02:45.373Z,100.00
2022-08-19T02:05:14.483Z,100.00
2022-08-19T02:07:43.285Z,100.00
2022-08-19T02:10:17.233Z,100.00
2022-08-19T02:12:45.778Z,100.00
2022-08-19T02:15:16.122Z,100.00
2022-08-19T02:17:44.663Z,100.00
2022-08-19T02:20:14.482Z,100.00
2022-08-19T02:22:43.573Z,100.00
2022-08-19T02:25:15.854Z,100.00
2022-08-19T02:27:44.953Z,100.00
2022-08-19T02:30:20.068Z,100.00
2022-08-19T02:32:48.672Z,100.00
2022-08-19T02:35:17.454Z,100.00
2022-08-19T02:38:03.271Z,100.00
2022-08-19T02:40:35.448Z,100.00
2022-08-19T02:43:03.961Z,100.00
2022-08-19T02:45:34.304Z,100.00
2022-08-19T02:48:02.553Z,100.00
2022-08-19T02:50:40.043Z,100.00
2022-08-19T02:53:19.831Z,100.00
2022-08-19T02:55:50.013Z,100.00
2022-08-19T02:58:19.345Z,100.00
2022-08-19T03:00:50.531Z,100.00
2022-08-19T03:03:19.711Z,100.00
2022-08-19T03:05:56.468Z,100.00
2022-08-19T03:08:26.845Z,100.00
2022-08-19T03:10:56.553Z,100.00
2022-08-19T03:13:25.421Z,100.00
2022-08-19T03:15:53.543Z,100.00
2022-08-19T03:18:23.153Z,100.00
2022-08-19T03:20:55.593Z,100.00
2022-08-19T03:23:25.282Z,100.00
2022-08-19T03:26:05.699Z,100.00
2022-08-19T03:28:51.227Z,100.00
2022-08-19T03:31:44.084Z,100.00
2022-08-19T03:34:18.292Z,100.00
2022-08-19T03:36:47.470Z,100.00
2022-08-19T03:39:16.575Z,100.00
2022-08-19T03:41:48.485Z,100.00
2022-08-19T03:44:21.674Z,100.00
2022-08-19T03:46:52.282Z,100.00
2022-08-19T03:49:21.743Z,100.00
2022-08-19T03:51:57.873Z,100.00
2022-08-19T03:54:27.402Z,100.00
2022-08-19T03:56:57.960Z,100.00
2022-08-19T03:59:31.052Z,100.00
2022-08-19T04:02:02.275Z,100.00
2022-08-19T04:04:31.857Z,100.00
2022-08-19T04:07:00.472Z,100.00
2022-08-19T04:09:28.998Z,100.00
2022-08-19T04:11:59.528Z,100.00
2022-08-19T04:14:32.002Z,100.00
2022-08-19T04:17:01.322Z,100.00
2022-08-19T04:19:31.825Z,100.00
2022-08-19T04:22:00.532Z,100.00
2022-08-19T04:24:30.703Z,100.00
2022-08-19T04:26:59.142Z,100.00
2022-08-19T04:29:28.802Z,100.00
2022-08-19T04:31:58.633Z,100.00
2022-08-19T04:34:29.602Z,100.00
2022-08-19T04:36:59.910Z,100.00
2022-08-19T04:39:45.005Z,100.00
2022-08-19T04:42:31.524Z,100.00
2022-08-19T04:45:01.772Z,100.00
2022-08-19T04:47:47.546Z,100.00
2022-08-19T04:50:20.933Z,100.00
2022-08-19T04:52:49.108Z,100.00
2022-08-19T04:55:17.632Z,100.00
2022-08-19T04:57:46.002Z,100.00
2022-08-19T05:00:16.783Z,100.00
2022-08-19T05:02:45.043Z,100.00
2022-08-19T05:05:13.526Z,100.00
2022-08-19T05:07:42.105Z,100.00
2022-08-19T05:10:10.792Z,100.00
2022-08-19T05:12:39.080Z,100.00
2022-08-19T05:15:10.542Z,100.00
2022-08-19T05:17:59.974Z,100.00
2022-08-19T05:20:45.762Z,100.00
2022-08-19T05:23:21.880Z,100.00
2022-08-19T05:25:51.244Z,100.00
2022-08-19T05:28:19.533Z,100.00
2022-08-19T05:30:49.074Z,100.00
2022-08-19T05:33:18.973Z,100.00
2022-08-19T05:35:47.162Z,100.00
2022-08-19T05:38:15.252Z,100.00
2022-08-19T05:40:48.852Z,100.00
2022-08-19T05:43:17.590Z,100.00
2022-08-19T05:45:46.695Z,100.00
2022-08-19T05:48:15.694Z,100.00
2022-08-19T05:50:46.383Z,100.00
2022-08-19T05:53:15.544Z,100.00
2022-08-19T05:55:43.715Z,100.00
2022-08-19T05:58:12.302Z,100.00
2022-08-19T06:00:41.104Z,100.00
2022-08-19T06:03:12.835Z,100.00
2022-08-19T06:05:50.209Z,100.00
2022-08-19T06:08:34.321Z,100.00
2022-08-19T06:11:17.563Z,100.00
2022-08-19T06:13:51.522Z,100.00
2022-08-19T06:16:23.208Z,100.00
2022-08-19T06:18:53.582Z,100.00
2022-08-19T06:21:23.432Z,100.00
2022-08-19T06:23:54.093Z,100.00
2022-08-19T06:26:23.144Z,100.00
2022-08-19T06:28:51.371Z,100.00
2022-08-19T06:31:22.883Z,100.00
2022-08-19T06:33:51.903Z,100.00
2022-08-19T06:36:21.951Z,100.00
2022-08-19T06:38:55.863Z,100.00
2022-08-19T06:41:24.093Z,100.00
2022-08-19T06:43:53.979Z,100.00
2022-08-19T06:46:22.303Z,100.00
2022-08-19T06:48:54.293Z,100.00
2022-08-19T06:51:24.911Z,100.00
2022-08-19T06:53:56.715Z,100.00
2022-08-19T06:56:31.941Z,100.00
2022-08-19T06:59:00.773Z,100.00
2022-08-19T07:01:29.123Z,100.00
2022-08-19T07:03:58.174Z,100.00
2022-08-19T07:06:43.273Z,100.00
2022-08-19T07:09:18.642Z,100.00
2022-08-19T07:11:48.782Z,100.00
2022-08-19T07:14:20.288Z,100.00
2022-08-19T07:16:50.007Z,100.00
2022-08-19T07:19:19.523Z,100.00
2022-08-19T07:21:49.015Z,100.00
2022-08-19T07:24:20.593Z,100.00
2022-08-19T07:26:51.672Z,100.00
2022-08-19T07:29:24.195Z,100.00
2022-08-19T07:31:57.188Z,100.00
2022-08-19T07:34:26.921Z,100.00
2022-08-19T07:36:56.572Z,100.00
2022-08-19T07:39:29.603Z,100.00
2022-08-19T07:41:59.923Z,100.00
2022-08-19T07:44:28.258Z,100.00
2022-08-19T07:46:58.841Z,100.00
2022-08-19T07:49:27.113Z,100.00
2022-08-19T07:51:58.100Z,100.00
2022-08-19T07:54:29.231Z,100.00
2022-08-19T07:56:57.713Z,100.00
2022-08-19T07:59:26.543Z,100.00
2022-08-19T08:01:55.024Z,100.00
2022-08-19T08:04:41.231Z,100.00
2022-08-19T08:07:31.552Z,100.00
2022-08-19T08:10:03.360Z,100.00
2022-08-19T08:12:36.373Z,100.00
2022-08-19T08:15:12.727Z,100.00
2022-08-19T08:17:49.044Z,100.00
2022-08-19T08:20:18.855Z,100.00
2022-08-19T08:23:06.020Z,100.00
2022-08-19T08:25:37.454Z,100.00
2022-08-19T08:28:09.692Z,100.00
2022-08-19T08:30:45.195Z,100.00
2022-08-19T08:33:13.962Z,100.00
2022-08-19T08:35:44.293Z,100.00
2022-08-19T08:38:13.171Z,100.00
2022-08-19T08:40:46.983Z,100.00
2022-08-19T08:43:24.281Z,100.00
2022-08-19T08:45:57.402Z,100.00
2022-08-19T08:48:33.591Z,100.00
2022-08-19T08:51:07.103Z,100.00
2022-08-19T08:53:41.854Z,100.00
2022-08-19T08:56:14.090Z,100.00
2022-08-19T08:58:56.518Z,100.00
2022-08-19T09:01:25.007Z,100.00
2022-08-19T09:04:03.099Z,100.00
2022-08-19T09:06:40.829Z,100.00
2022-08-19T09:09:19.002Z,100.00
2022-08-19T09:11:58.840Z,100.00
2022-08-19T09:14:54.324Z,100.00
2022-08-19T09:17:32.100Z,100.00
2022-08-19T09:20:05.943Z,100.00
2022-08-19T09:22:37.993Z,100.00
2022-08-19T09:25:07.312Z,100.00
2022-08-19T09:27:42.524Z,100.00
2022-08-19T09:30:25.673Z,100.00
2022-08-19T09:32:54.762Z,100.00
2022-08-19T09:35:24.398Z,100.00
2022-08-19T09:37:57.766Z,100.00
2022-08-19T09:40:30.125Z,100.00
2022-08-19T09:43:01.593Z,99.93
2022-08-19T09:45:29.791Z,95.69
2022-08-19T09:47:58.954Z,95.05
2022-08-19T09:50:27.233Z,92.41
2022-08-19T09:52:57.543Z,93.17
2022-08-19T09:55:32.070Z,91.45
2022-08-19T09:58:03.650Z,88.57
2022-08-19T10:00:33.022Z,86.95
2022-08-19T10:03:01.321Z,84.87
2022-08-19T10:05:48.438Z,90.20
2022-08-19T10:08:18.551Z,89.03
2022-08-19T10:10:49.707Z,93.29
2022-08-19T10:13:26.450Z,90.43
2022-08-19T10:15:57.252Z,85.93
2022-08-19T10:18:26.810Z,82.79
2022-08-19T10:21:08.712Z,82.93
2022-08-19T10:23:38.413Z,83.80
2022-08-19T10:26:07.602Z,79.51
2022-08-19T10:28:39.293Z,79.10
2022-08-19T10:31:09.241Z,80.66
2022-08-19T10:33:53.466Z,82.83
2022-08-19T10:36:24.582Z,85.70
2022-08-19T10:38:58.465Z,83.77
2022-08-19T10:41:29.792Z,85.59
2022-08-19T10:44:04.120Z,85.26
2022-08-19T10:46:34.102Z,83.98
2022-08-19T10:49:03.522Z,78.60
2022-08-19T10:51:49.559Z,75.50
2022-08-19T10:54:31.226Z,79.34
2022-08-19T10:57:00.594Z,83.64
2022-08-19T10:59:35.776Z,78.95
2022-08-19T11:02:07.690Z,80.08
2022-08-19T11:04:35.985Z,78.11
2022-08-19T11:07:04.611Z,77.07
2022-08-19T11:09:34.215Z,74.44
2022-08-19T11:12:04.978Z,70.00
2022-08-19T11:14:35.802Z,69.38
2022-08-19T11:17:05.762Z,64.45
2022-08-19T11:19:34.552Z,64.59
2022-08-19T11:22:04.359Z,66.01
2022-08-19T11:24:34.152Z,66.18
2022-08-19T11:27:05.809Z,61.59
2022-08-19T11:29:35.832Z,59.60
2022-08-19T11:32:07.700Z,58.09
2022-08-19T11:34:36.352Z,57.92
2022-08-19T11:37:06.690Z,58.76
2022-08-19T11:39:38.067Z,62.69
2022-08-19T11:42:29.003Z,62.56
2022-08-19T11:44:58.662Z,65.81
2022-08-19T11:47:27.194Z,70.12
2022-08-19T11:49:55.467Z,68.92
2022-08-19T11:52:23.573Z,63.93
2022-08-19T11:54:51.883Z,65.27
2022-08-19T11:57:20.811Z,64.21
2022-08-19T11:59:51.422Z,57.67
2022-08-19T12:02:22.604Z,57.57
2022-08-19T12:04:51.013Z,58.54
2022-08-19T12:07:19.908Z,56.14
2022-08-19T12:09:48.826Z,58.38
2022-08-19T12:12:17.893Z,58.60
2022-08-19T12:14:47.544Z,58.28
2022-08-19T12:17:16.208Z,62.31
2022-08-19T12:19:45.772Z,65.30
2022-08-19T12:22:13.811Z,60.56
2022-08-19T12:24:41.911Z,60.88
2022-08-19T12:27:12.876Z,59.36
2022-08-19T12:29:42.436Z,59.48
2022-08-19T12:32:12.094Z,59.29
2022-08-19T12:34:41.420Z,60.76
2022-08-19T12:37:11.943Z,58.29
2022-08-19T12:39:43.419Z,53.69
2022-08-19T12:42:12.812Z,54.62
2022-08-19T12:44:42.704Z,54.53
2022-08-19T12:47:12.482Z,52.26
2022-08-19T12:49:53.548Z,54.54
2022-08-19T12:52:26.211Z,51.57
2022-08-19T12:54:56.222Z,53.46
2022-08-19T12:57:32.530Z,54.88
2022-08-19T13:00:04.879Z,53.71
2022-08-19T13:02:38.485Z,53.90
2022-08-19T13:05:12.299Z,54.67
2022-08-19T13:07:44.695Z,56.61
2022-08-19T13:10:16.375Z,55.61
2022-08-19T13:12:45.612Z,55.09
2022-08-19T13:15:15.176Z,54.24
2022-08-19T13:17:44.132Z,54.18
2022-08-19T13:20:13.534Z,52.80
2022-08-19T13:22:43.314Z,50.42
2022-08-19T13:25:12.362Z,49.95
2022-08-19T13:27:41.919Z,49.81
2022-08-19T13:30:30.172Z,52.81
2022-08-19T13:33:16.290Z,53.08
2022-08-19T13:35:48.792Z,52.89
2022-08-19T13:38:21.377Z,55.88
2022-08-19T13:40:51.425Z,51.26
2022-08-19T13:43:23.841Z,51.23
2022-08-19T13:45:57.418Z,48.85
2022-08-19T13:48:27.912Z,51.08
2022-08-19T13:50:57.145Z,49.89
2022-08-19T13:53:26.701Z,49.19
2022-08-19T13:55:55.451Z,47.42
2022-08-19T13:58:24.581Z,47.86
2022-08-19T14:00:52.892Z,48.47
2022-08-19T14:03:21.152Z,51.47
2022-08-19T14:05:49.385Z,53.92
2022-08-19T14:08:19.195Z,54.52
2022-08-19T14:10:49.554Z,54.36
2022-08-19T14:13:22.163Z,57.36
2022-08-19T14:15:51.312Z,55.28
2022-08-19T14:18:20.402Z,53.06
2022-08-19T14:20:48.672Z,52.68
2022-08-19T14:23:16.722Z,53.54
2022-08-19T14:25:45.721Z,54.14
2022-08-19T14:28:15.231Z,54.48
2022-08-19T14:30:45.476Z,54.73
2022-08-19T14:33:15.233Z,55.23
2022-08-19T14:35:46.532Z,53.56
2022-08-19T14:38:18.743Z,53.38
2022-08-19T14:40:58.234Z,52.37
2022-08-19T14:43:27.773Z,51.66
2022-08-19T14:45:57.952Z,50.57
2022-08-19T14:48:29.034Z,52.65
2022-08-19T14:50:57.635Z,50.89
2022-08-19T14:53:25.670Z,51.26
2022-08-19T14:55:53.802Z,54.25
2022-08-19T14:58:29.026Z,52.77
2022-08-19T15:01:01.066Z,53.76
2022-08-19T15:03:29.962Z,53.21
2022-08-19T15:05:59.115Z,50.17
2022-08-19T15:08:29.242Z,52.38
2022-08-19T15:10:58.512Z,51.28
2022-08-19T15:13:28.282Z,52.43
2022-08-19T15:15:56.473Z,52.64
2022-08-19T15:18:26.690Z,54.52
2022-08-19T15:20:55.943Z,53.03
2022-08-19T15:23:24.532Z,54.73
2022-08-19T15:25:55.840Z,54.49
2022-08-19T15:28:25.403Z,55.31
2022-08-19T15:30:54.833Z,53.28
2022-08-19T15:33:23.021Z,55.06
2022-08-19T15:35:54.164Z,56.68
2022-08-19T15:38:23.875Z,56.78
2022-08-19T15:40:51.952Z,58.14
2022-08-19T15:43:22.384Z,57.33
2022-08-19T15:45:50.602Z,57.75
2022-08-19T15:48:18.922Z,56.28
2022-08-19T15:50:46.914Z,56.30
2022-08-19T15:53:17.152Z,58.49
2022-08-19T15:55:48.530Z,55.27
2022-08-19T15:58:34.753Z,56.40
2022-08-19T16:01:24.009Z,60.00
2022-08-19T16:04:14.520Z,59.53
2022-08-19T16:06:47.000Z,59.23
2022-08-19T16:09:17.083Z,60.21
2022-08-19T16:11:56.149Z,64.81
2022-08-19T16:14:26.524Z,63.22
2022-08-19T16:16:56.803Z,61.59
2022-08-19T16:19:26.315Z,58.96
2022-08-19T16:21:56.482Z,58.89
2022-08-19T16:24:29.844Z,60.50
2022-08-19T16:26:58.453Z,61.91
2022-08-19T16:29:34.406Z,61.12
2022-08-19T16:32:12.650Z,59.40
2022-08-19T16:34:42.305Z,59.99
2022-08-19T16:37:11.063Z,60.05
2022-08-19T16:39:41.230Z,60.75
2022-08-19T16:42:14.041Z,59.04
2022-08-19T16:44:45.055Z,60.77
2022-08-19T16:47:15.373Z,64.07
2022-08-19T16:49:54.572Z,61.51
2022-08-19T16:52:27.133Z,62.62
2022-08-19T16:54:56.775Z,66.44
2022-08-19T16:57:25.040Z,68.45
2022-08-19T16:59:53.881Z,65.52
2022-08-19T17:02:23.674Z,67.37
2022-08-19T17:04:59.321Z,68.11
2022-08-19T17:07:28.129Z,69.07
2022-08-19T17:09:58.385Z,65.80
2022-08-19T17:12:35.466Z,62.34
2022-08-19T17:15:08.328Z,61.24
2022-08-19T17:17:37.154Z,61.49
2022-08-19T17:20:06.480Z,61.16
2022-08-19T17:22:35.900Z,62.70
2022-08-19T17:25:05.990Z,62.99
2022-08-19T17:27:34.222Z,65.79
2022-08-19T17:30:03.014Z,66.56
2022-08-19T17:32:35.112Z,67.14
2022-08-19T17:35:04.753Z,70.04
2022-08-19T17:37:34.272Z,67.78
2022-08-19T17:40:03.244Z,69.99
2022-08-19T17:42:32.735Z,70.55
2022-08-19T17:45:00.992Z,73.61
2022-08-19T17:47:29.943Z,72.72
2022-08-19T17:49:58.242Z,72.83
2022-08-19T17:52:26.643Z,75.81
2022-08-19T17:54:54.783Z,77.18
2022-08-19T17:57:22.932Z,79.39
2022-08-19T17:59:52.652Z,79.92
2022-08-19T18:02:22.055Z,77.59
2022-08-19T18:04:50.740Z,77.56
2022-08-19T18:07:21.530Z,78.02
2022-08-19T18:09:52.983Z,78.78
2022-08-19T18:12:24.962Z,79.03
2022-08-19T18:14:54.402Z,80.35
2022-08-19T18:17:23.391Z,77.98
2022-08-19T18:19:51.973Z,78.31
2022-08-19T18:22:26.679Z,81.12
2022-08-19T18:24:55.742Z,82.62
2022-08-19T18:27:24.032Z,84.19
2022-08-19T18:29:52.553Z,85.33
2022-08-19T18:32:24.060Z,87.53
2022-08-19T18:34:52.532Z,87.88
2022-08-19T18:37:21.111Z,87.54
2022-08-19T18:40:07.148Z,88.83
2022-08-19T18:42:53.061Z,88.41
2022-08-19T18:45:38.792Z,87.09
2022-08-19T18:48:27.997Z,88.61
2022-08-19T18:50:58.113Z,89.31
2022-08-19T18:53:28.423Z,88.75
2022-08-19T18:55:56.870Z,89.13
2022-08-19T18:58:33.751Z,87.87
2022-08-19T19:01:09.136Z,87.66
2022-08-19T19:03:39.942Z,86.84
2022-08-19T19:06:08.634Z,86.15
2022-08-19T19:08:37.442Z,85.46
2022-08-19T19:11:06.203Z,87.13
2022-08-19T19:13:35.549Z,88.13
2022-08-19T19:16:04.122Z,90.76
2022-08-19T19:18:33.385Z,90.11
2022-08-19T19:21:02.953Z,88.76
2022-08-19T19:23:31.174Z,89.91
2022-08-19T19:26:00.529Z,90.86
2022-08-19T19:28:28.870Z,90.67
2022-08-19T19:30:59.175Z,91.78
2022-08-19T19:33:27.953Z,92.23
2022-08-19T19:35:56.542Z,92.97
2022-08-19T19:38:26.241Z,93.13
2022-08-19T19:40:54.482Z,93.87
2022-08-19T19:43:22.872Z,94.81
2022-08-19T19:45:52.083Z,95.85
2022-08-19T19:48:20.582Z,96.14
2022-08-19T19:50:54.293Z,96.07
2022-08-19T19:53:27.569Z,96.94
2022-08-19T19:55:59.802Z,96.91
2022-08-19T19:58:29.325Z,96.52
2022-08-19T20:00:59.472Z,98.07
2022-08-19T20:03:29.979Z,98.92
2022-08-19T20:05:59.594Z,99.63
2022-08-19T20:08:46.812Z,100.00
2022-08-19T20:11:25.924Z,100.00
2022-08-19T20:13:54.349Z,100.00
2022-08-19T20:16:23.062Z,100.00
2022-08-19T20:18:51.292Z,100.00
2022-08-19T20:21:25.851Z,100.00
2022-08-19T20:24:09.172Z,100.00
2022-08-19T20:26:38.882Z,100.00
2022-08-19T20:29:37.901Z,100.00
2022-08-19T20:31:59.132Z,100.00
2022-08-19T20:34:28.747Z,100.00
2022-08-19T20:36:57.064Z,100.00
2022-08-19T20:39:26.592Z,100.00
2022-08-19T20:41:56.369Z,100.00
2022-08-19T20:44:25.913Z,100.00
2022-08-19T20:46:56.085Z,100.00
2022-08-19T20:49:27.470Z,100.00
2022-08-19T20:51:56.737Z,100.00
2022-08-19T20:54:26.977Z,100.00
2022-08-19T20:56:56.064Z,100.00
2022-08-19T20:59:25.887Z,100.00
2022-08-19T21:01:55.582Z,100.00
2022-08-19T21:04:24.452Z,100.00
2022-08-19T21:06:52.502Z,100.00
2022-08-19T21:09:20.813Z,100.00
2022-08-19T21:11:51.212Z,100.00
2022-08-19T21:14:19.782Z,100.00
2022-08-19T21:16:49.261Z,100.00
2022-08-19T21:19:22.022Z,100.00
2022-08-19T21:21:52.142Z,100.00
2022-08-19T21:24:20.541Z,100.00
2022-08-19T21:26:51.399Z,100.00
2022-08-19T21:29:20.022Z,100.00
2022-08-19T21:31:49.005Z,100.00
2022-08-19T21:34:17.623Z,100.00
2022-08-19T21:36:45.895Z,100.00
2022-08-19T21:39:14.322Z,100.00
2022-08-19T21:41:43.813Z,100.00
2022-08-19T21:44:13.452Z,100.00
2022-08-19T21:46:42.113Z,100.00
2022-08-19T21:49:10.153Z,100.00
2022-08-19T21:51:38.373Z,100.00
2022-08-19T21:54:07.154Z,100.00
2022-08-19T21:56:42.203Z,100.00
2022-08-19T21:59:10.343Z,100.00
2022-08-19T22:01:39.822Z,100.00
2022-08-19T22:04:08.143Z,100.00
2022-08-19T22:06:36.562Z,100.00
2022-08-19T22:09:05.332Z,100.00
2022-08-19T22:11:33.922Z,100.00
2022-08-19T22:14:03.885Z,100.00
2022-08-19T22:16:33.812Z,100.00
2022-08-19T22:19:03.132Z,100.00
2022-08-19T22:21:39.631Z,100.00
2022-08-19T22:24:09.833Z,100.00
2022-08-19T22:26:38.031Z,100.00
2022-08-19T22:29:07.110Z,100.00
2022-08-19T22:31:35.833Z,100.00
2022-08-19T22:34:06.058Z,100.00
2022-08-19T22:36:34.662Z,100.00
2022-08-19T22:39:03.652Z,100.00
2022-08-19T22:41:33.659Z,100.00
2022-08-19T22:44:02.042Z,100.00
2022-08-19T22:46:34.317Z,100.00
2022-08-19T22:49:02.614Z,100.00
2022-08-19T22:51:49.893Z,100.00
2022-08-19T22:54:18.523Z,100.00
2022-08-19T22:56:46.813Z,100.00
2022-08-19T22:59:15.002Z,100.00
2022-08-19T23:01:43.239Z,100.00
2022-08-19T23:04:11.949Z,100.00
2022-08-19T23:06:42.337Z,100.00
2022-08-19T23:09:16.670Z,100.00
2022-08-19T23:11:45.714Z,100.00
2022-08-19T23:14:14.375Z,100.00
2022-08-19T23:16:42.896Z,100.00
2022-08-19T23:19:11.852Z,100.00
2022-08-19T23:21:42.782Z,100.00
2022-08-19T23:24:12.184Z,100.00
2022-08-19T23:27:02.341Z,100.00
2022-08-19T23:29:48.531Z,100.00
2022-08-19T23:32:17.453Z,100.00
2022-08-19T23:34:46.171Z,100.00
2022-08-19T23:37:15.694Z,100.00
2022-08-19T23:39:45.391Z,100.00
2022-08-19T23:42:13.865Z,100.00
2022-08-19T23:44:52.089Z,100.00
2022-08-19T23:47:22.006Z,100.00
2022-08-19T23:49:50.616Z,100.00
2022-08-19T23:52:20.762Z,100.00
2022-08-19T23:54:49.061Z,100.00
2022-08-19T23:57:17.472Z,100.00
2022-08-19T23:59:46.231Z,100.00
